Time,TemperatureF,DewpointF,PressureIn,WindDirection,WindDirectionDegrees,WindSpeedMPH,WindSpeedGustMPH,Humidity,HourlyPrecipIn,Conditions,Clouds,dailyrainin,SoftwareType,DateUTC
2013-07-16 00:01:00,69.8,67.4,28.23,NNW,338,0.0,0.0,92,0.00,,---,0.00,VWS V14.01,2013-07-16 04:01:00,
2013-07-16 00:02:00,69.8,67.4,28.23,NNW,338,0.0,0.0,92,0.00,,---,0.00,VWS V14.01,2013-07-16 04:02:00,
2013-07-16 00:03:00,69.8,67.4,28.23,NNW,338,0.0,0.0,92,0.00,,---,0.00,VWS V14.01,2013-07-16 04:03:00,
2013-07-16 00:08:00,70.0,67.6,28.20,NNW,338,0.0,0.0,92,0.00,,---,0.00,VWS V14.01,2013-07-16 04:08:00,
2013-07-16 00:13:00,69.8,67.4,28.20,NNW,338,0.0,0.0,92,0.00,,---,0.00,VWS V14.01,2013-07-16 04:13:00,
2013-07-16 00:18:00,69.8,67.4,28.20,NNW,338,0.0,0.0,92,0.00,,---,0.00,VWS V14.01,2013-07-16 04:18:00,
2013-07-16 00:23:00,69.6,67.5,28.23,NNW,338,0.0,0.0,93,0.00,,---,0.00,VWS V14.01,2013-07-16 04:23:00,
2013-07-16 00:28:00,69.6,67.5,28.23,NNW,338,0.0,0.0,93,0.00,,---,0.00,VWS V14.01,2013-07-16 04:28:00,
2013-07-16 00:33:00,69.6,67.5,28.23,NNW,338,0.0,0.0,93,0.00,,---,0.00,VWS V14.01,2013-07-16 04:33:00,
2013-07-16 00:38:00,69.6,67.5,28.23,NNW,338,0.0,0.0,93,0.00,,---,0.00,VWS V14.01,2013-07-16 04:38:00,
2013-07-16 00:43:00,69.6,67.8,28.23,NNW,338,0.0,0.0,94,0.00,,---,0.00,VWS V14.01,2013-07-16 04:43:00,
2013-07-16 00:48:00,69.4,67.6,28.23,NNW,338,0.0,0.0,94,0.00,,---,0.00,VWS V14.01,2013-07-16 04:48:00,
2013-07-16 00:53:00,69.4,67.6,28.20,NNW,338,0.0,0.0,94,0.00,,---,0.00,VWS V14.01,2013-07-16 04:53:00,
2013-07-16 00:58:00,69.4,67.6,28.20,NNW,338,0.0,0.0,94,0.00,,---,0.00,VWS V14.01,2013-07-16 04:58:00,
2013-07-16 01:03:00,69.4,67.6,28.20,NNW,338,0.0,0.0,94,0.00,,---,0.00,VWS V14.01,2013-07-16 05:03:00,
2013-07-16 01:08:00,69.4,67.6,28.23,NNW,338,0.0,0.0,94,0.00,,---,0.00,VWS V14.01,2013-07-16 05:08:00,
2013-07-16 01:13:00,69.3,67.5,28.23,NNW,338,0.0,0.0,94,0.00,,---,0.00,VWS V14.01,2013-07-16 05:13:00,
2013-07-16 01:18:00,69.4,67.6,28.23,NNW,338,0.0,0.0,94,0.00,,---,0.00,VWS V14.01,2013-07-16 05:18:00,
2013-07-16 01:23:00,69.3,67.5,28.20,NNW,338,0.0,0.0,94,0.00,,---,0.00,VWS V14.01,2013-07-16 05:23:00,
2013-07-16 01:28:00,69.3,67.5,28.20,NNW,338,0.0,0.0,94,0.00,,---,0.00,VWS V14.01,2013-07-16 05:28:00,
2013-07-16 01:33:00,69.3,67.5,28.20,NNW,338,0.0,0.0,94,0.00,,---,0.00,VWS V14.01,2013-07-16 05:33:00,
2013-07-16 01:39:00,69.1,67.3,28.23,NNW,338,0.0,0.0,94,0.00,,---,0.00,VWS V14.01,2013-07-16 05:39:00,
2013-07-16 01:44:00,69.1,67.3,28.23,NNW,338,0.0,0.0,94,0.00,,---,0.00,VWS V14.01,2013-07-16 05:44:00,
2013-07-16 01:49:00,68.9,67.1,28.23,NNW,338,0.0,0.0,94,0.00,,---,0.00,VWS V14.01,2013-07-16 05:49:00,
2013-07-16 01:54:00,68.9,67.1,28.23,NNW,338,0.0,0.0,94,0.00,,---,0.00,VWS V14.01,2013-07-16 05:54:00,
2013-07-16 01:59:00,68.9,67.1,28.23,NNW,338,0.0,0.0,94,0.00,,---,0.00,VWS V14.01,2013-07-16 05:59:00,
2013-07-16 02:04:00,68.7,67.2,28.23,NNW,338,0.0,0.0,95,0.00,,---,0.00,VWS V14.01,2013-07-16 06:04:00,
2013-07-16 02:09:00,68.7,67.2,28.23,NNW,338,0.0,0.0,95,0.00,,---,0.00,VWS V14.01,2013-07-16 06:09:00,
2013-07-16 02:14:00,68.9,67.4,28.23,NNW,338,0.0,0.0,95,0.00,,---,0.00,VWS V14.01,2013-07-16 06:14:00,
2013-07-16 02:19:00,68.9,67.4,28.23,NNW,338,0.0,0.0,95,0.00,,---,0.00,VWS V14.01,2013-07-16 06:19:00,
2013-07-16 02:24:00,68.9,67.4,28.23,NNW,338,0.0,0.0,95,0.00,,---,0.00,VWS V14.01,2013-07-16 06:24:00,
2013-07-16 02:29:00,68.7,67.2,28.23,NNW,338,0.0,0.0,95,0.00,,---,0.00,VWS V14.01,2013-07-16 06:29:00,
2013-07-16 02:34:00,68.7,67.2,28.23,NNW,338,0.0,0.0,95,0.00,,---,0.00,VWS V14.01,2013-07-16 06:34:00,
2013-07-16 02:39:00,68.7,67.2,28.23,NNW,338,0.0,0.0,95,0.00,,---,0.00,VWS V14.01,2013-07-16 06:39:00,
2013-07-16 02:44:00,68.7,67.2,28.23,NNW,338,0.0,0.0,95,0.00,,---,0.00,VWS V14.01,2013-07-16 06:44:00,
2013-07-16 02:49:00,68.7,67.2,28.23,NNW,338,0.0,0.0,95,0.00,,---,0.00,VWS V14.01,2013-07-16 06:49:00,
2013-07-16 02:54:00,68.7,67.2,28.23,NNW,338,0.0,0.0,95,0.00,,---,0.00,VWS V14.01,2013-07-16 06:54:00,
2013-07-16 02:59:00,68.7,67.2,28.23,NNW,338,0.0,0.0,95,0.00,,---,0.00,VWS V14.01,2013-07-16 06:59:00,
2013-07-16 03:04:00,68.5,67.1,28.23,NNW,338,0.0,0.0,95,0.00,,---,0.00,VWS V14.01,2013-07-16 07:04:00,
2013-07-16 03:09:00,68.5,67.1,28.23,NNW,338,0.0,0.0,95,0.00,,---,0.00,VWS V14.01,2013-07-16 07:09:00,
2013-07-16 03:14:00,68.5,67.1,28.23,NNW,338,0.0,0.0,95,0.00,,---,0.00,VWS V14.01,2013-07-16 07:14:00,
2013-07-16 03:19:00,68.5,67.1,28.23,NNW,338,0.0,0.0,95,0.00,,---,0.00,VWS V14.01,2013-07-16 07:19:00,
2013-07-16 03:24:00,68.5,67.1,28.23,NNW,338,0.0,0.0,95,0.00,,---,0.00,VWS V14.01,2013-07-16 07:24:00,
2013-07-16 03:30:00,68.4,66.9,28.23,NNW,338,0.0,0.0,95,0.00,,---,0.00,VWS V14.01,2013-07-16 07:30:00,
2013-07-16 03:35:00,68.4,66.9,28.23,NNW,338,0.0,0.0,95,0.00,,---,0.00,VWS V14.01,2013-07-16 07:35:00,
2013-07-16 03:40:00,68.4,67.2,28.23,NNW,338,0.0,0.0,96,0.00,,---,0.00,VWS V14.01,2013-07-16 07:40:00,
2013-07-16 03:45:00,68.4,67.2,28.23,NNW,338,0.0,0.0,96,0.00,,---,0.00,VWS V14.01,2013-07-16 07:45:00,
2013-07-16 03:50:00,68.4,67.2,28.23,NNW,338,0.0,0.0,96,0.00,,---,0.00,VWS V14.01,2013-07-16 07:50:00,
2013-07-16 03:55:00,68.4,67.2,28.23,NNW,338,0.0,0.0,96,0.00,,---,0.00,VWS V14.01,2013-07-16 07:55:00,
2013-07-16 04:00:00,68.2,67.0,28.23,NNW,338,0.0,0.0,96,0.00,,---,0.00,VWS V14.01,2013-07-16 08:00:00,
2013-07-16 04:05:00,68.2,67.0,28.23,NNW,338,1.1,1.1,96,0.00,,---,0.00,VWS V14.01,2013-07-16 08:05:00,
2013-07-16 04:10:00,68.2,67.0,28.23,NNW,338,0.0,0.0,96,0.00,,---,0.00,VWS V14.01,2013-07-16 08:10:00,
2013-07-16 04:15:00,68.2,67.0,28.23,NNW,338,0.0,0.0,96,0.00,,---,0.00,VWS V14.01,2013-07-16 08:15:00,
2013-07-16 04:20:00,68.0,66.8,28.23,NNW,338,0.0,0.0,96,0.00,,---,0.00,VWS V14.01,2013-07-16 08:20:00,
2013-07-16 04:25:00,68.0,66.8,28.23,NNW,338,0.0,0.0,96,0.00,,---,0.00,VWS V14.01,2013-07-16 08:25:00,
2013-07-16 04:30:00,68.0,66.8,28.23,NNW,338,0.0,0.0,96,0.00,,---,0.00,VWS V14.01,2013-07-16 08:30:00,
2013-07-16 04:35:00,68.0,66.8,28.20,NNW,338,0.0,0.0,96,0.00,,---,0.00,VWS V14.01,2013-07-16 08:35:00,
2013-07-16 04:40:00,67.8,66.6,28.20,NNW,338,0.0,0.0,96,0.00,,---,0.00,VWS V14.01,2013-07-16 08:40:00,
2013-07-16 04:45:00,67.8,66.6,28.20,NNW,338,0.0,0.0,96,0.00,,---,0.00,VWS V14.01,2013-07-16 08:45:00,
2013-07-16 04:50:00,67.8,66.6,28.20,NNW,338,0.0,0.0,96,0.00,,---,0.00,VWS V14.01,2013-07-16 08:50:00,
2013-07-16 04:55:00,67.8,66.6,28.20,NNW,338,0.0,0.0,96,0.00,,---,0.00,VWS V14.01,2013-07-16 08:55:00,
2013-07-16 05:01:00,67.6,66.5,28.20,NNW,338,0.0,0.0,96,0.00,,---,0.00,VWS V14.01,2013-07-16 09:01:00,
2013-07-16 05:06:00,67.6,66.5,28.20,NNW,338,0.0,0.0,96,0.00,,---,0.00,VWS V14.01,2013-07-16 09:06:00,
2013-07-16 05:11:00,67.6,66.5,28.20,NNW,338,0.0,0.0,96,0.00,,---,0.00,VWS V14.01,2013-07-16 09:11:00,
2013-07-16 05:16:00,67.6,66.5,28.20,NNW,338,0.0,0.0,96,0.00,,---,0.00,VWS V14.01,2013-07-16 09:16:00,
2013-07-16 05:21:00,67.5,66.3,28.23,NNW,338,0.0,0.0,96,0.00,,---,0.00,VWS V14.01,2013-07-16 09:21:00,
2013-07-16 05:26:00,67.5,66.3,28.23,NNW,338,0.0,0.0,96,0.00,,---,0.00,VWS V14.01,2013-07-16 09:26:00,
2013-07-16 05:31:00,67.5,66.3,28.23,NNW,338,0.0,0.0,96,0.00,,---,0.00,VWS V14.01,2013-07-16 09:31:00,
2013-07-16 05:36:00,67.5,66.3,28.23,NNW,338,0.0,0.0,96,0.00,,---,0.00,VWS V14.01,2013-07-16 09:36:00,
2013-07-16 05:41:00,67.3,66.1,28.23,NNW,338,0.0,0.0,96,0.00,,---,0.00,VWS V14.01,2013-07-16 09:41:00,
2013-07-16 05:46:00,67.3,66.1,28.23,NNW,338,0.0,0.0,96,0.00,,---,0.00,VWS V14.01,2013-07-16 09:46:00,
2013-07-16 05:52:00,67.3,66.1,28.23,NNW,338,0.0,0.0,96,0.00,,---,0.00,VWS V14.01,2013-07-16 09:52:00,
2013-07-16 05:57:00,67.3,66.1,28.23,NNW,338,0.0,0.0,96,0.00,,---,0.00,VWS V14.01,2013-07-16 09:57:00,
2013-07-16 06:02:00,67.3,66.4,28.23,NNW,338,0.0,0.0,97,0.00,,---,0.00,VWS V14.01,2013-07-16 10:02:00,
2013-07-16 06:07:00,67.3,66.1,28.23,NNW,338,0.0,0.0,96,0.00,,---,0.00,VWS V14.01,2013-07-16 10:07:00,
2013-07-16 06:12:00,67.3,66.4,28.23,NNW,338,0.0,0.0,97,0.00,,---,0.00,VWS V14.01,2013-07-16 10:12:00,
2013-07-16 06:17:00,67.3,66.4,28.23,NNW,338,0.0,0.0,97,0.00,,---,0.00,VWS V14.01,2013-07-16 10:17:00,
2013-07-16 06:22:00,67.3,66.4,28.23,NNW,338,0.0,0.0,97,0.00,,---,0.00,VWS V14.01,2013-07-16 10:22:00,
2013-07-16 06:27:00,67.3,66.4,28.23,NNW,338,0.0,0.0,97,0.00,,---,0.00,VWS V14.01,2013-07-16 10:27:00,
2013-07-16 06:32:00,67.3,66.4,28.23,NNW,338,0.0,0.0,97,0.00,,---,0.00,VWS V14.01,2013-07-16 10:32:00,
2013-07-16 06:37:00,67.3,66.4,28.23,South,180,0.0,0.0,97,0.00,,---,0.00,VWS V14.01,2013-07-16 10:37:00,
2013-07-16 06:43:00,67.3,66.4,28.23,South,180,0.0,0.0,97,0.00,,---,0.00,VWS V14.01,2013-07-16 10:43:00,
2013-07-16 06:48:00,67.3,66.4,28.23,SE,135,0.0,0.0,97,0.00,,---,0.00,VWS V14.01,2013-07-16 10:48:00,
2013-07-16 06:53:00,67.3,66.4,28.23,SE,135,0.0,0.0,97,0.00,,---,0.00,VWS V14.01,2013-07-16 10:53:00,
2013-07-16 06:58:00,67.3,66.4,28.23,SE,135,0.0,0.0,97,0.00,,---,0.00,VWS V14.01,2013-07-16 10:58:00,
2013-07-16 07:03:00,67.5,66.6,28.23,SW,225,0.0,0.0,97,0.00,,---,0.00,VWS V14.01,2013-07-16 11:03:00,
2013-07-16 07:08:00,67.5,66.6,28.23,SW,225,0.0,0.0,97,0.00,,---,0.00,VWS V14.01,2013-07-16 11:08:00,
2013-07-16 07:13:00,67.5,66.6,28.23,SW,225,0.0,0.0,97,0.00,,---,0.00,VWS V14.01,2013-07-16 11:13:00,
2013-07-16 07:18:00,67.5,66.6,28.23,SW,225,0.0,0.0,97,0.00,,---,0.00,VWS V14.01,2013-07-16 11:18:00,
2013-07-16 07:23:00,67.6,66.8,28.26,SW,225,0.0,0.0,97,0.00,,---,0.00,VWS V14.01,2013-07-16 11:23:00,
2013-07-16 07:28:00,67.6,66.8,28.26,SW,225,0.0,0.0,97,0.00,,---,0.00,VWS V14.01,2013-07-16 11:28:00,
2013-07-16 07:34:00,67.6,66.8,28.26,SW,225,0.0,0.0,97,0.00,,---,0.00,VWS V14.01,2013-07-16 11:34:00,
2013-07-16 07:39:00,67.8,66.9,28.23,SW,225,0.0,0.0,97,0.00,,---,0.00,VWS V14.01,2013-07-16 11:39:00,
2013-07-16 07:44:00,68.0,66.8,28.23,SW,225,0.0,0.0,96,0.00,,---,0.00,VWS V14.01,2013-07-16 11:44:00,
2013-07-16 07:49:00,68.2,67.0,28.23,SW,225,0.0,0.0,96,0.00,,---,0.00,VWS V14.01,2013-07-16 11:49:00,
2013-07-16 07:54:00,68.4,67.2,28.23,SW,225,0.0,0.0,96,0.00,,---,0.00,VWS V14.01,2013-07-16 11:54:00,
2013-07-16 07:59:00,68.4,67.2,28.23,SW,225,0.0,0.0,96,0.00,,---,0.00,VWS V14.01,2013-07-16 11:59:00,
2013-07-16 08:04:00,68.7,67.5,28.23,SW,225,0.0,0.0,96,0.00,,---,0.00,VWS V14.01,2013-07-16 12:04:00,
2013-07-16 08:09:00,68.9,67.7,28.26,SW,225,0.0,0.0,96,0.00,,---,0.00,VWS V14.01,2013-07-16 12:09:00,
2013-07-16 08:14:00,69.4,68.2,28.26,SW,225,0.0,0.0,96,0.00,,---,0.00,VWS V14.01,2013-07-16 12:14:00,
2013-07-16 08:19:00,69.6,68.4,28.26,SW,225,0.0,0.0,96,0.00,,---,0.00,VWS V14.01,2013-07-16 12:19:00,
2013-07-16 08:24:00,70.0,68.8,28.26,SSW,202,0.0,0.0,96,0.00,,---,0.00,VWS V14.01,2013-07-16 12:24:00,
2013-07-16 08:29:00,70.3,69.2,28.26,WNW,292,0.0,0.0,96,0.00,,---,0.00,VWS V14.01,2013-07-16 12:29:00,
2013-07-16 08:34:00,70.7,69.5,28.26,NNE,22,0.0,0.0,96,0.00,,---,0.00,VWS V14.01,2013-07-16 12:34:00,
2013-07-16 08:40:00,71.1,69.9,28.26,NE,45,0.0,4.0,96,0.00,,---,0.00,VWS V14.01,2013-07-16 12:40:00,
2013-07-16 08:45:00,71.4,70.2,28.26,NW,315,0.0,2.0,96,0.00,,---,0.00,VWS V14.01,2013-07-16 12:45:00,
2013-07-16 08:50:00,71.4,70.2,28.26,WNW,292,0.0,0.9,96,0.00,,---,0.00,VWS V14.01,2013-07-16 12:50:00,
2013-07-16 08:55:00,72.1,70.6,28.26,SSE,158,0.0,0.0,95,0.00,,---,0.00,VWS V14.01,2013-07-16 12:55:00,
2013-07-16 09:00:00,72.7,71.2,28.26,South,180,0.0,0.0,95,0.00,,---,0.00,VWS V14.01,2013-07-16 13:00:00,
2013-07-16 09:05:00,72.9,71.3,28.26,SSW,202,0.0,0.9,95,0.00,,---,0.00,VWS V14.01,2013-07-16 13:05:00,
2013-07-16 09:10:00,73.0,71.2,28.29,SSW,202,0.0,0.0,94,0.00,,---,0.00,VWS V14.01,2013-07-16 13:10:00,
2013-07-16 09:15:00,73.2,71.4,28.29,West,270,0.0,1.1,94,0.00,,---,0.00,VWS V14.01,2013-07-16 13:15:00,
2013-07-16 09:20:00,73.9,71.8,28.29,WSW,248,0.0,0.0,93,0.00,,---,0.00,VWS V14.01,2013-07-16 13:20:00,
2013-07-16 09:25:00,75.4,72.9,28.26,ESE,112,0.0,1.1,92,0.00,,---,0.00,VWS V14.01,2013-07-16 13:25:00,
2013-07-16 09:30:00,75.4,72.6,28.26,SE,135,0.0,0.0,91,0.00,,---,0.00,VWS V14.01,2013-07-16 13:30:00,
2013-07-16 09:35:00,76.3,72.8,28.26,NNW,338,0.0,0.0,89,0.00,,---,0.00,VWS V14.01,2013-07-16 13:35:00,
2013-07-16 09:40:00,77.4,73.5,28.26,North,0,0.0,0.0,88,0.00,,---,0.00,VWS V14.01,2013-07-16 13:40:00,
2013-07-16 09:46:00,77.9,73.4,28.26,South,180,0.0,1.1,86,0.00,,---,0.00,VWS V14.01,2013-07-16 13:46:00,
2013-07-16 09:51:00,78.3,74.1,28.26,SSW,202,1.1,1.1,87,0.00,,---,0.00,VWS V14.01,2013-07-16 13:51:00,
2013-07-16 09:56:00,79.0,73.4,28.26,SW,225,0.0,0.0,83,0.00,,---,0.00,VWS V14.01,2013-07-16 13:56:00,
2013-07-16 10:01:00,79.5,73.6,28.26,WNW,292,2.0,2.0,82,0.00,,---,0.00,VWS V14.01,2013-07-16 14:01:00,
2013-07-16 10:06:00,80.1,72.6,28.26,SSE,158,0.0,0.0,78,0.00,,---,0.00,VWS V14.01,2013-07-16 14:06:00,
2013-07-16 10:11:00,80.2,72.8,28.26,SW,225,0.0,0.0,78,0.00,,---,0.00,VWS V14.01,2013-07-16 14:11:00,
2013-07-16 10:16:00,80.6,72.7,28.26,SSW,202,0.9,0.9,77,0.00,,---,0.00,VWS V14.01,2013-07-16 14:16:00,
2013-07-16 10:21:00,81.1,71.7,28.26,SE,135,0.0,0.0,73,0.00,,---,0.00,VWS V14.01,2013-07-16 14:21:00,
2013-07-16 10:26:00,81.3,70.6,28.26,WNW,292,0.0,0.0,70,0.00,,---,0.00,VWS V14.01,2013-07-16 14:26:00,
2013-07-16 10:31:00,81.9,72.4,28.26,East,90,1.3,1.6,73,0.00,,---,0.00,VWS V14.01,2013-07-16 14:31:00,
2013-07-16 10:37:00,82.4,71.2,28.26,West,270,3.4,3.4,69,0.00,,---,0.00,VWS V14.01,2013-07-16 14:37:00,
2013-07-16 10:42:00,83.1,72.3,28.26,WSW,248,0.9,0.9,70,0.00,,---,0.00,VWS V14.01,2013-07-16 14:42:00,
2013-07-16 10:47:00,83.1,71.9,28.26,WNW,292,0.0,1.1,69,0.00,,---,0.00,VWS V14.01,2013-07-16 14:47:00,
2013-07-16 10:52:00,83.7,72.0,28.29,WNW,292,0.0,0.0,68,0.00,,---,0.00,VWS V14.01,2013-07-16 14:52:00,
2013-07-16 10:57:00,83.8,71.7,28.29,West,270,0.0,0.0,67,0.00,,---,0.00,VWS V14.01,2013-07-16 14:57:00,
2013-07-16 11:02:00,83.8,70.8,28.29,WNW,292,1.6,1.6,65,0.00,,---,0.00,VWS V14.01,2013-07-16 15:02:00,
2013-07-16 11:07:00,83.7,70.2,28.26,NNW,338,0.0,2.9,64,0.00,,---,0.00,VWS V14.01,2013-07-16 15:07:00,
2013-07-16 11:12:00,83.5,70.0,28.26,WNW,292,0.0,0.0,64,0.00,,---,0.00,VWS V14.01,2013-07-16 15:12:00,
2013-07-16 11:17:00,84.0,69.1,28.26,NW,315,0.0,0.0,61,0.00,,---,0.00,VWS V14.01,2013-07-16 15:17:00,
2013-07-16 11:22:00,84.6,70.1,28.29,WNW,292,0.0,1.3,62,0.00,,---,0.00,VWS V14.01,2013-07-16 15:22:00,
2013-07-16 11:27:00,84.7,70.3,28.29,NW,315,0.0,1.1,62,0.00,,---,0.00,VWS V14.01,2013-07-16 15:27:00,
2013-07-16 11:32:00,85.1,70.2,28.29,WNW,292,1.1,1.1,61,0.00,,---,0.00,VWS V14.01,2013-07-16 15:32:00,
2013-07-16 11:37:00,85.6,69.7,28.29,South,180,0.0,0.9,59,0.00,,---,0.00,VWS V14.01,2013-07-16 15:37:00,
2013-07-16 11:42:00,85.5,69.0,28.29,South,180,1.1,1.6,58,0.00,,---,0.00,VWS V14.01,2013-07-16 15:42:00,
2013-07-16 11:48:00,85.8,69.3,28.29,NW,315,0.0,1.1,58,0.00,,---,0.00,VWS V14.01,2013-07-16 15:48:00,
2013-07-16 11:53:00,86.5,70.0,28.29,East,90,0.0,0.0,58,0.00,,---,0.00,VWS V14.01,2013-07-16 15:53:00,
2013-07-16 11:58:00,86.4,70.3,28.29,NW,315,0.0,1.1,59,0.00,,---,0.00,VWS V14.01,2013-07-16 15:58:00,
2013-07-16 12:03:00,86.2,70.2,28.29,SE,135,2.0,2.0,59,0.00,,---,0.00,VWS V14.01,2013-07-16 16:03:00,
2013-07-16 12:08:00,86.9,68.8,28.26,SSW,202,0.0,0.0,55,0.00,,---,0.00,VWS V14.01,2013-07-16 16:08:00,
2013-07-16 12:13:00,87.3,70.2,28.26,SSE,158,0.0,0.0,57,0.00,,---,0.00,VWS V14.01,2013-07-16 16:13:00,
2013-07-16 12:18:00,86.2,68.7,28.26,WNW,292,0.9,1.1,56,0.00,,---,0.00,VWS V14.01,2013-07-16 16:18:00,
2013-07-16 12:23:00,86.9,69.8,28.26,South,180,0.0,0.0,57,0.00,,---,0.00,VWS V14.01,2013-07-16 16:23:00,
2013-07-16 12:28:00,87.1,69.5,28.26,NNE,22,0.9,0.9,56,0.00,,---,0.00,VWS V14.01,2013-07-16 16:28:00,
2013-07-16 12:33:00,87.6,70.5,28.26,SE,135,0.0,1.6,57,0.00,,---,0.00,VWS V14.01,2013-07-16 16:33:00,
2013-07-16 12:38:00,85.6,69.2,28.29,East,90,0.0,1.1,58,0.00,,---,0.00,VWS V14.01,2013-07-16 16:38:00,
2013-07-16 12:43:00,86.7,69.7,28.29,East,90,1.3,1.3,57,0.00,,---,0.00,VWS V14.01,2013-07-16 16:43:00,
2013-07-16 12:48:00,87.1,69.0,28.29,ESE,112,1.1,1.1,55,0.00,,---,0.00,VWS V14.01,2013-07-16 16:48:00,
2013-07-16 12:54:00,87.4,68.8,28.26,WSW,248,0.9,0.9,54,0.00,,---,0.00,VWS V14.01,2013-07-16 16:54:00,
2013-07-16 12:59:00,88.0,69.3,28.26,SW,225,0.0,1.1,54,0.00,,---,0.00,VWS V14.01,2013-07-16 16:59:00,
2013-07-16 13:04:00,88.0,68.7,28.26,South,180,0.0,2.0,53,0.00,,---,0.00,VWS V14.01,2013-07-16 17:04:00,
2013-07-16 13:09:00,88.3,69.1,28.26,NW,315,2.5,3.8,53,0.00,,---,0.00,VWS V14.01,2013-07-16 17:09:00,
2013-07-16 13:14:00,88.5,69.8,28.26,SSW,202,1.1,1.6,54,0.00,,---,0.00,VWS V14.01,2013-07-16 17:14:00,
2013-07-16 13:19:00,88.0,69.8,28.26,NNE,22,1.3,2.5,55,0.00,,---,0.00,VWS V14.01,2013-07-16 17:19:00,
2013-07-16 13:24:00,88.9,70.1,28.26,ESE,112,0.0,1.3,54,0.00,,---,0.00,VWS V14.01,2013-07-16 17:24:00,
2013-07-16 13:29:00,88.3,69.1,28.26,ESE,112,0.9,0.9,53,0.00,,---,0.00,VWS V14.01,2013-07-16 17:29:00,
2013-07-16 13:34:00,88.7,70.5,28.26,East,90,0.0,0.0,55,0.00,,---,0.00,VWS V14.01,2013-07-16 17:34:00,
2013-07-16 13:39:00,89.1,70.3,28.26,ESE,112,2.5,2.5,54,0.00,,---,0.00,VWS V14.01,2013-07-16 17:39:00,
2013-07-16 13:44:00,89.4,69.5,28.26,South,180,0.0,0.0,52,0.00,,---,0.00,VWS V14.01,2013-07-16 17:44:00,
2013-07-16 13:49:00,89.6,68.5,28.26,ESE,112,2.7,2.7,50,0.00,,---,0.00,VWS V14.01,2013-07-16 17:49:00,
2013-07-16 13:54:00,89.4,68.3,28.26,SSE,158,0.0,1.1,50,0.00,,---,0.00,VWS V14.01,2013-07-16 17:54:00,
2013-07-16 13:59:00,87.6,68.4,28.26,WNW,292,0.9,1.6,53,0.00,,---,0.00,VWS V14.01,2013-07-16 17:59:00,
2013-07-16 14:04:00,87.4,69.3,28.26,NW,315,1.3,1.3,55,0.00,,---,0.00,VWS V14.01,2013-07-16 18:04:00,
2013-07-16 14:10:00,88.5,68.7,28.26,North,0,1.6,2.0,52,0.00,,---,0.00,VWS V14.01,2013-07-16 18:10:00,
2013-07-16 14:15:00,88.3,67.9,28.26,WSW,248,0.0,0.0,51,0.00,,---,0.00,VWS V14.01,2013-07-16 18:15:00,
2013-07-16 14:20:00,88.3,68.5,28.26,WNW,292,0.0,0.0,52,0.00,,---,0.00,VWS V14.01,2013-07-16 18:20:00,
2013-07-16 14:25:00,87.4,69.3,28.26,East,90,1.3,1.3,55,0.00,,---,0.00,VWS V14.01,2013-07-16 18:25:00,
2013-07-16 14:30:00,88.0,69.3,28.26,SSE,158,0.9,1.1,54,0.00,,---,0.00,VWS V14.01,2013-07-16 18:30:00,
2013-07-16 14:35:00,87.3,69.1,28.26,SW,225,0.0,0.0,55,0.00,,---,0.00,VWS V14.01,2013-07-16 18:35:00,
2013-07-16 14:40:00,87.3,70.2,28.23,WSW,248,0.0,0.0,57,0.00,,---,0.00,VWS V14.01,2013-07-16 18:40:00,
2013-07-16 14:45:00,87.4,70.3,28.23,East,90,0.0,0.0,57,0.00,,---,0.00,VWS V14.01,2013-07-16 18:45:00,
2013-07-16 14:50:00,86.9,70.4,28.23,East,90,2.0,2.0,58,0.00,,---,0.00,VWS V14.01,2013-07-16 18:50:00,
2013-07-16 14:55:00,87.4,70.3,28.23,West,270,1.6,1.6,57,0.00,,---,0.00,VWS V14.01,2013-07-16 18:55:00,
2013-07-16 15:00:00,88.3,70.7,28.23,SSW,202,0.0,0.0,56,0.00,,---,0.00,VWS V14.01,2013-07-16 19:00:00,
2013-07-16 15:05:00,87.4,69.3,28.23,WNW,292,1.6,3.1,55,0.00,,---,0.00,VWS V14.01,2013-07-16 19:05:00,
2013-07-16 15:10:00,88.2,68.9,28.23,South,180,1.1,1.1,53,0.00,,---,0.00,VWS V14.01,2013-07-16 19:10:00,
2013-07-16 15:15:00,88.7,69.4,28.23,WSW,248,0.0,3.8,53,0.00,,---,0.00,VWS V14.01,2013-07-16 19:15:00,
2013-07-16 15:20:00,89.2,68.8,28.23,ENE,68,0.9,2.0,51,0.00,,---,0.00,VWS V14.01,2013-07-16 19:20:00,
2013-07-16 15:25:00,89.4,68.3,28.23,ESE,112,2.7,2.7,50,0.00,,---,0.00,VWS V14.01,2013-07-16 19:25:00,
2013-07-16 15:30:00,89.2,68.2,28.23,West,270,1.1,1.1,50,0.00,,---,0.00,VWS V14.01,2013-07-16 19:30:00,
2013-07-16 15:35:00,90.0,68.2,28.23,SE,135,1.3,1.3,49,0.00,,---,0.00,VWS V14.01,2013-07-16 19:35:00,
2013-07-16 15:40:00,89.8,68.1,28.23,West,270,1.6,1.6,49,0.00,,---,0.00,VWS V14.01,2013-07-16 19:40:00,
2013-07-16 15:45:00,89.4,67.2,28.23,ENE,68,4.3,4.3,48,0.00,,---,0.00,VWS V14.01,2013-07-16 19:45:00,
2013-07-16 15:50:00,89.6,67.3,28.23,SE,135,1.6,3.4,48,0.00,,---,0.00,VWS V14.01,2013-07-16 19:50:00,
2013-07-16 15:55:00,90.0,68.2,28.23,SSW,202,1.6,1.6,49,0.00,,---,0.00,VWS V14.01,2013-07-16 19:55:00,
2013-07-16 16:01:00,90.0,68.2,28.23,WSW,248,4.9,4.9,49,0.00,,---,0.00,VWS V14.01,2013-07-16 20:01:00,
2013-07-16 16:06:00,90.5,68.8,28.23,SE,135,0.0,0.0,49,0.00,,---,0.00,VWS V14.01,2013-07-16 20:06:00,
2013-07-16 16:11:00,90.1,67.8,28.23,NW,315,0.0,0.0,48,0.00,,---,0.00,VWS V14.01,2013-07-16 20:11:00,
2013-07-16 16:16:00,90.5,68.2,28.23,SE,135,2.0,3.6,48,0.00,,---,0.00,VWS V14.01,2013-07-16 20:16:00,
2013-07-16 16:21:00,90.3,67.4,28.20,West,270,0.9,0.9,47,0.00,,---,0.00,VWS V14.01,2013-07-16 20:21:00,
2013-07-16 16:26:00,90.3,67.4,28.20,NW,315,1.3,1.6,47,0.00,,---,0.00,VWS V14.01,2013-07-16 20:26:00,
2013-07-16 16:31:00,90.3,66.8,28.20,SSW,202,1.3,2.9,46,0.00,,---,0.00,VWS V14.01,2013-07-16 20:31:00,
2013-07-16 16:36:00,90.9,67.9,28.23,WSW,248,0.0,0.0,47,0.00,,---,0.00,VWS V14.01,2013-07-16 20:36:00,
2013-07-16 16:41:00,90.7,67.7,28.23,East,90,1.6,1.6,47,0.00,,---,0.00,VWS V14.01,2013-07-16 20:41:00,
2013-07-16 16:46:00,91.2,68.2,28.23,NNE,22,3.6,3.6,47,0.00,,---,0.00,VWS V14.01,2013-07-16 20:46:00,
2013-07-16 16:51:00,90.7,67.1,28.20,ENE,68,3.8,3.8,46,0.00,,---,0.00,VWS V14.01,2013-07-16 20:51:00,
2013-07-16 16:56:00,90.9,67.2,28.20,WNW,292,0.0,1.3,46,0.00,,---,0.00,VWS V14.01,2013-07-16 20:56:00,
2013-07-16 17:01:00,90.9,67.2,28.20,NE,45,0.9,0.9,46,0.00,,---,0.00,VWS V14.01,2013-07-16 21:01:00,
2013-07-16 17:06:00,90.7,67.1,28.20,West,270,0.0,0.0,46,0.00,,---,0.00,VWS V14.01,2013-07-16 21:06:00,
2013-07-16 17:11:00,90.7,67.7,28.20,WSW,248,1.6,1.6,47,0.00,,---,0.00,VWS V14.01,2013-07-16 21:11:00,
2013-07-16 17:16:00,90.3,66.8,28.20,SE,135,0.0,1.1,46,0.00,,---,0.00,VWS V14.01,2013-07-16 21:16:00,
2013-07-16 17:21:00,89.4,66.6,28.20,WNW,292,0.0,0.0,47,0.00,,---,0.00,VWS V14.01,2013-07-16 21:21:00,
2013-07-16 17:26:00,89.6,66.7,28.20,NNE,22,0.0,0.9,47,0.00,,---,0.00,VWS V14.01,2013-07-16 21:26:00,
2013-07-16 17:32:00,88.7,65.9,28.20,SW,225,0.0,0.0,47,0.00,,---,0.00,VWS V14.01,2013-07-16 21:32:00,
2013-07-16 17:37:00,87.8,65.7,28.20,NE,45,1.3,1.3,48,0.00,,---,0.00,VWS V14.01,2013-07-16 21:37:00,
2013-07-16 17:42:00,86.5,65.7,28.20,South,180,1.1,1.1,50,0.00,,---,0.00,VWS V14.01,2013-07-16 21:42:00,
2013-07-16 17:47:00,85.8,65.6,28.20,South,180,0.0,0.0,51,0.00,,---,0.00,VWS V14.01,2013-07-16 21:47:00,
2013-07-16 17:52:00,85.5,65.8,28.20,East,90,0.0,0.0,52,0.00,,---,0.00,VWS V14.01,2013-07-16 21:52:00,
2013-07-16 17:57:00,85.1,66.6,28.20,East,90,0.0,0.0,54,0.00,,---,0.00,VWS V14.01,2013-07-16 21:57:00,
2013-07-16 18:02:00,84.4,66.5,28.20,WNW,292,0.0,0.0,55,0.00,,---,0.00,VWS V14.01,2013-07-16 22:02:00,
2013-07-16 18:07:00,83.3,67.0,28.20,WNW,292,0.0,0.0,58,0.00,,---,0.00,VWS V14.01,2013-07-16 22:07:00,
2013-07-16 18:12:00,82.6,66.8,28.20,WNW,292,0.0,0.0,59,0.00,,---,0.00,VWS V14.01,2013-07-16 22:12:00,
2013-07-16 18:18:00,82.2,67.4,28.20,East,90,0.0,0.0,61,0.00,,---,0.00,VWS V14.01,2013-07-16 22:18:00,
2013-07-16 18:23:00,82.4,67.6,28.20,SE,135,0.9,0.9,61,0.00,,---,0.00,VWS V14.01,2013-07-16 22:23:00,
2013-07-16 18:28:00,82.4,67.1,28.20,East,90,2.2,2.2,60,0.00,,---,0.00,VWS V14.01,2013-07-16 22:28:00,
2013-07-16 18:33:00,82.6,66.8,28.20,ESE,112,0.9,0.9,59,0.00,,---,0.00,VWS V14.01,2013-07-16 22:33:00,
2013-07-16 18:38:00,82.4,67.6,28.20,WNW,292,1.1,1.1,61,0.00,,---,0.00,VWS V14.01,2013-07-16 22:38:00,
2013-07-16 18:43:00,82.4,67.6,28.20,WNW,292,0.0,0.0,61,0.00,,---,0.00,VWS V14.01,2013-07-16 22:43:00,
2013-07-16 18:48:00,82.4,67.6,28.20,WNW,292,0.0,1.3,61,0.00,,---,0.00,VWS V14.01,2013-07-16 22:48:00,
2013-07-16 18:53:00,82.2,68.4,28.20,East,90,0.0,0.0,63,0.00,,---,0.00,VWS V14.01,2013-07-16 22:53:00,
2013-07-16 18:58:00,81.9,68.5,28.20,NW,315,0.0,0.0,64,0.00,,---,0.00,VWS V14.01,2013-07-16 22:58:00,
2013-07-16 19:03:00,81.5,68.6,28.20,ENE,68,0.0,0.0,65,0.00,,---,0.00,VWS V14.01,2013-07-16 23:03:00,
2013-07-16 19:08:00,81.3,68.0,28.17,ESE,112,0.0,0.0,64,0.00,,---,0.00,VWS V14.01,2013-07-16 23:08:00,
2013-07-16 19:13:00,81.1,68.3,28.17,East,90,0.0,0.0,65,0.00,,---,0.00,VWS V14.01,2013-07-16 23:13:00,
2013-07-16 19:18:00,81.0,68.5,28.17,East,90,0.0,0.0,66,0.00,,---,0.00,VWS V14.01,2013-07-16 23:18:00,
2013-07-16 19:23:00,80.6,68.2,28.17,North,0,0.0,0.0,66,0.00,,---,0.00,VWS V14.01,2013-07-16 23:23:00,
2013-07-16 19:29:00,80.2,68.3,28.17,North,0,0.0,0.0,67,0.00,,---,0.00,VWS V14.01,2013-07-16 23:29:00,
2013-07-16 19:34:00,80.1,68.6,28.17,North,0,0.0,0.0,68,0.00,,---,0.00,VWS V14.01,2013-07-16 23:34:00,
2013-07-16 19:39:00,80.2,68.7,28.17,North,0,0.0,0.0,68,0.00,,---,0.00,VWS V14.01,2013-07-16 23:39:00,
2013-07-16 19:44:00,80.1,68.6,28.17,North,0,0.0,0.0,68,0.00,,---,0.00,VWS V14.01,2013-07-16 23:44:00,
2013-07-16 19:49:00,79.9,68.8,28.17,North,0,0.0,0.0,69,0.00,,---,0.00,VWS V14.01,2013-07-16 23:49:00,
2013-07-16 19:54:00,79.9,68.8,28.20,North,0,0.0,0.0,69,0.00,,---,0.00,VWS V14.01,2013-07-16 23:54:00,
2013-07-16 19:59:00,79.7,69.1,28.20,North,0,0.0,0.0,70,0.00,,---,0.00,VWS V14.01,2013-07-16 23:59:00,
2013-07-16 20:04:00,79.5,69.3,28.20,NNE,22,0.0,0.0,71,0.00,,---,0.00,VWS V14.01,2013-07-17 00:04:00,
2013-07-16 20:09:00,79.3,69.5,28.20,NNE,22,0.0,0.0,72,0.00,,---,0.00,VWS V14.01,2013-07-17 00:09:00,
2013-07-16 20:14:00,79.0,69.2,28.20,NNE,22,0.0,0.0,72,0.00,,---,0.00,VWS V14.01,2013-07-17 00:14:00,
2013-07-16 20:19:00,78.8,69.4,28.20,NNE,22,0.0,0.0,73,0.00,,---,0.00,VWS V14.01,2013-07-17 00:19:00,
2013-07-16 20:24:00,78.6,69.2,28.20,NNE,22,0.0,0.0,73,0.00,,---,0.00,VWS V14.01,2013-07-17 00:24:00,
2013-07-16 20:29:00,78.6,69.2,28.20,NE,45,0.0,0.0,73,0.00,,---,0.00,VWS V14.01,2013-07-17 00:29:00,
2013-07-16 20:34:00,78.6,69.7,28.20,NE,45,0.0,0.0,74,0.00,,---,0.00,VWS V14.01,2013-07-17 00:34:00,
2013-07-16 20:39:00,78.6,69.7,28.20,NE,45,0.0,0.0,74,0.00,,---,0.00,VWS V14.01,2013-07-17 00:39:00,
2013-07-16 20:44:00,78.1,69.5,28.20,NE,45,0.0,0.0,75,0.00,,---,0.00,VWS V14.01,2013-07-17 00:44:00,
2013-07-16 20:49:00,77.7,69.2,28.20,NE,45,0.0,0.0,75,0.00,,---,0.00,VWS V14.01,2013-07-17 00:49:00,
2013-07-16 20:54:00,77.7,69.6,28.20,NE,45,0.0,0.0,76,0.00,,---,0.00,VWS V14.01,2013-07-17 00:54:00,
2013-07-16 20:59:00,77.7,69.2,28.20,North,0,0.0,0.0,75,0.00,,---,0.00,VWS V14.01,2013-07-17 00:59:00,
2013-07-16 21:05:00,77.7,69.2,28.20,East,90,0.0,0.0,75,0.00,,---,0.00,VWS V14.01,2013-07-17 01:05:00,
2013-07-16 21:10:00,77.7,68.8,28.20,NW,315,0.0,0.0,74,0.00,,---,0.00,VWS V14.01,2013-07-17 01:10:00,
2013-07-16 21:15:00,77.7,68.8,28.20,ENE,68,0.0,0.0,74,0.00,,---,0.00,VWS V14.01,2013-07-17 01:15:00,
2013-07-16 21:20:00,77.5,68.2,28.20,North,0,0.0,0.0,73,0.00,,---,0.00,VWS V14.01,2013-07-17 01:20:00,
2013-07-16 21:25:00,77.5,68.2,28.20,NNW,338,2.0,2.0,73,0.00,,---,0.00,VWS V14.01,2013-07-17 01:25:00,
2013-07-16 21:30:00,77.5,68.2,28.20,North,0,0.0,0.0,73,0.00,,---,0.00,VWS V14.01,2013-07-17 01:30:00,
2013-07-16 21:35:00,77.5,68.2,28.20,NNW,338,0.0,0.0,73,0.00,,---,0.00,VWS V14.01,2013-07-17 01:35:00,
2013-07-16 21:40:00,77.5,68.6,28.20,NNW,338,0.0,0.0,74,0.00,,---,0.00,VWS V14.01,2013-07-17 01:40:00,
2013-07-16 21:45:00,77.4,68.4,28.20,ENE,68,0.0,0.9,74,0.00,,---,0.00,VWS V14.01,2013-07-17 01:45:00,
2013-07-16 21:50:00,77.4,68.4,28.20,East,90,0.0,0.0,74,0.00,,---,0.00,VWS V14.01,2013-07-17 01:50:00,
2013-07-16 21:55:00,77.0,68.5,28.20,NNE,22,0.0,0.0,75,0.00,,---,0.00,VWS V14.01,2013-07-17 01:55:00,
2013-07-16 22:00:00,76.6,68.9,28.20,NNW,338,0.0,0.0,77,0.00,,---,0.00,VWS V14.01,2013-07-17 02:00:00,
2013-07-16 22:05:00,76.1,68.8,28.20,NNW,338,0.0,0.0,78,0.00,,---,0.00,VWS V14.01,2013-07-17 02:05:00,
2013-07-16 22:10:00,75.7,69.1,28.20,NNW,338,0.0,0.0,80,0.00,,---,0.00,VWS V14.01,2013-07-17 02:10:00,
2013-07-16 22:16:00,75.6,69.3,28.20,NNW,338,0.0,0.0,81,0.00,,---,0.00,VWS V14.01,2013-07-17 02:16:00,
2013-07-16 22:21:00,75.2,69.3,28.20,NNW,338,0.0,0.0,82,0.00,,---,0.00,VWS V14.01,2013-07-17 02:21:00,
2013-07-16 22:26:00,75.0,69.5,28.20,NNW,338,0.0,0.0,83,0.00,,---,0.00,VWS V14.01,2013-07-17 02:26:00,
2013-07-16 22:31:00,74.8,69.3,28.20,NNW,338,0.0,0.0,83,0.00,,---,0.00,VWS V14.01,2013-07-17 02:31:00,
2013-07-16 22:36:00,74.7,69.5,28.20,NNW,338,0.0,0.0,84,0.00,,---,0.00,VWS V14.01,2013-07-17 02:36:00,
2013-07-16 22:41:00,74.5,69.3,28.20,NNW,338,0.0,0.0,84,0.00,,---,0.00,VWS V14.01,2013-07-17 02:41:00,
2013-07-16 22:46:00,74.5,69.3,28.20,NNW,338,0.0,0.0,84,0.00,,---,0.00,VWS V14.01,2013-07-17 02:46:00,
2013-07-16 22:51:00,74.3,69.2,28.20,NNW,338,0.0,0.0,84,0.00,,---,0.00,VWS V14.01,2013-07-17 02:51:00,
2013-07-16 22:56:00,74.1,69.0,28.20,NNW,338,0.0,0.0,84,0.00,,---,0.00,VWS V14.01,2013-07-17 02:56:00,
2013-07-16 23:01:00,73.9,68.8,28.20,NNW,338,0.0,0.0,84,0.00,,---,0.00,VWS V14.01,2013-07-17 03:01:00,
2013-07-16 23:06:00,73.9,68.8,28.23,NNW,338,0.0,0.0,84,0.00,,---,0.00,VWS V14.01,2013-07-17 03:06:00,
2013-07-16 23:11:00,73.9,68.8,28.23,NNW,338,0.0,0.0,84,0.00,,---,0.00,VWS V14.01,2013-07-17 03:11:00,
2013-07-16 23:16:00,73.9,68.8,28.23,NNW,338,0.0,0.0,84,0.00,,---,0.00,VWS V14.01,2013-07-17 03:16:00,
2013-07-16 23:21:00,74.3,69.2,28.20,NNW,338,0.0,0.0,84,0.00,,---,0.00,VWS V14.01,2013-07-17 03:21:00,
2013-07-16 23:26:00,74.5,69.3,28.20,North,0,0.0,0.0,84,0.00,,---,0.00,VWS V14.01,2013-07-17 03:26:00,
2013-07-16 23:32:00,74.8,69.3,28.20,North,0,0.9,0.9,83,0.00,,---,0.00,VWS V14.01,2013-07-17 03:32:00,
2013-07-16 23:37:00,75.0,69.5,28.20,North,0,0.0,0.0,83,0.00,,---,0.00,VWS V14.01,2013-07-17 03:37:00,
2013-07-16 23:42:00,75.4,69.5,28.20,NNW,338,0.0,0.0,82,0.00,,---,0.00,VWS V14.01,2013-07-17 03:42:00,
2013-07-16 23:47:00,75.6,69.3,28.20,NNE,22,1.3,2.0,81,0.00,,---,0.00,VWS V14.01,2013-07-17 03:47:00,
2013-07-16 23:52:00,75.6,69.3,28.23,North,0,0.0,0.9,81,0.00,,---,0.00,VWS V14.01,2013-07-17 03:52:00,
2013-07-16 23:57:00,75.7,69.5,28.23,NW,315,0.0,0.0,81,0.00,,---,0.00,VWS V14.01,2013-07-17 03:57:00,